createdAt,value
2023-03-03T00:03:16.232Z,31.0
2023-03-03T00:08:22.371Z,31.0
2023-03-03T00:13:28.582Z,31.0
2023-03-03T00:18:34.776Z,30.0
2023-03-03T00:23:40.987Z,31.0
2023-03-03T00:28:47.209Z,31.0
2023-03-03T00:33:53.394Z,30.0
2023-03-03T00:38:59.606Z,30.0
2023-03-03T00:44:05.815Z,31.0
2023-03-03T00:49:12.019Z,31.0
2023-03-03T00:54:18.247Z,28.0
2023-03-03T00:59:24.429Z,28.0
2023-03-03T01:04:29.667Z,30.0
2023-03-03T01:09:35.880Z,30.0
2023-03-03T01:14:42.107Z,30.0
2023-03-03T01:19:48.296Z,30.0
2023-03-03T01:24:53.531Z,29.0
2023-03-03T01:29:59.747Z,29.0
2023-03-03T01:35:05.958Z,31.0
2023-03-03T01:40:12.149Z,31.0
2023-03-03T01:45:18.362Z,30.0
2023-03-03T01:50:24.884Z,32.0
2023-03-03T01:55:30.785Z,30.5
2023-03-03T02:00:36.987Z,31.0
2023-03-03T02:05:43.208Z,29.0
2023-03-03T02:10:49.381Z,34.0
2023-03-03T02:15:55.625Z,35.0
2023-03-03T02:21:01.802Z,34.0
2023-03-03T02:26:08.014Z,32.0
2023-03-03T02:31:14.429Z,32.0
2023-03-03T02:36:20.438Z,35.0
2023-03-03T02:41:26.630Z,35.0
2023-03-03T02:46:32.854Z,40.0
2023-03-03T02:51:39.048Z,36.0
2023-03-03T02:56:45.249Z,34.0
2023-03-03T03:01:51.459Z,38.0
2023-03-03T03:06:57.677Z,38.0
2023-03-03T03:12:02.900Z,37.0
2023-03-03T03:17:09.108Z,35.0
2023-03-03T03:22:14.346Z,29.0
2023-03-03T03:27:20.544Z,28.5
2023-03-03T03:32:26.816Z,28.0
2023-03-03T03:37:32.963Z,28.0
2023-03-03T03:42:39.168Z,29.0
2023-03-03T03:47:45.373Z,29.0
2023-03-03T03:52:51.604Z,29.5
2023-03-03T03:57:57.796Z,28.0
2023-03-03T04:03:04.153Z,28.0
2023-03-03T04:08:10.229Z,27.0
2023-03-03T04:13:16.417Z,28.5
2023-03-03T04:18:22.622Z,28.0
2023-03-03T04:23:28.829Z,30.0
2023-03-03T04:28:35.041Z,31.0
2023-03-03T04:33:41.473Z,31.5
2023-03-03T04:38:47.452Z,32.0
2023-03-03T04:43:53.667Z,32.0
2023-03-03T04:48:59.867Z,33.0
2023-03-03T04:54:06.071Z,34.0
2023-03-03T04:59:12.292Z,34.0
2023-03-03T05:04:18.555Z,35.5
2023-03-03T05:09:24.692Z,35.0
2023-03-03T05:14:29.921Z,36.0
2023-03-03T05:19:36.124Z,36.0
2023-03-03T05:24:41.364Z,34.0
2023-03-03T05:29:47.568Z,33.0
2023-03-03T05:34:53.778Z,30.0
2023-03-03T05:39:59.984Z,30.0
2023-03-03T05:45:06.185Z,32.0
2023-03-03T05:50:12.400Z,30.0
2023-03-03T05:55:18.608Z,31.5
2023-03-03T06:00:24.946Z,30.5
2023-03-03T06:05:31.025Z,32.0
2023-03-03T06:10:37.230Z,31.0
2023-03-03T06:15:43.486Z,31.5
2023-03-03T06:20:49.665Z,30.0
2023-03-03T06:25:55.846Z,30.0
2023-03-03T06:31:02.054Z,30.0
2023-03-03T06:36:08.263Z,26.0
2023-03-03T06:41:14.487Z,29.0
2023-03-03T06:46:20.676Z,27.0
2023-03-03T06:51:26.926Z,29.0
2023-03-03T06:56:33.088Z,27.0
2023-03-03T07:01:39.291Z,28.0
2023-03-03T07:06:45.524Z,27.0
2023-03-03T07:11:50.748Z,29.0
2023-03-03T07:16:57.016Z,25.0
2023-03-03T07:22:02.196Z,27.0
2023-03-03T07:27:08.404Z,26.0
2023-03-03T07:32:14.612Z,26.0
2023-03-03T07:37:20.822Z,24.0
2023-03-03T07:42:27.027Z,25.0
2023-03-03T07:47:33.246Z,29.0
2023-03-03T07:52:39.436Z,26.0
2023-03-03T07:57:45.644Z,25.0
2023-03-03T08:02:51.850Z,23.0
2023-03-03T08:07:58.058Z,23.0
2023-03-03T08:13:04.265Z,24.0
2023-03-03T08:18:10.463Z,21.0
2023-03-03T08:23:16.673Z,20.0
2023-03-03T08:28:22.870Z,23.0
2023-03-03T08:33:29.075Z,21.0
2023-03-03T08:38:35.287Z,20.0
2023-03-03T08:43:41.487Z,21.0
2023-03-03T08:48:47.699Z,20.0
2023-03-03T08:53:53.915Z,22.0
2023-03-03T08:59:02.524Z,22.0
2023-03-03T09:04:06.375Z,21.0
2023-03-03T09:09:11.562Z,20.0
2023-03-03T09:14:17.774Z,19.0
2023-03-03T09:19:23.004Z,19.0
2023-03-03T09:24:29.206Z,19.0
2023-03-03T09:29:35.412Z,18.0
2023-03-03T09:34:41.638Z,18.0
2023-03-03T09:39:47.823Z,18.0
2023-03-03T09:44:54.042Z,19.0
2023-03-03T09:50:02.577Z,18.0
2023-03-03T09:55:06.457Z,18.0
2023-03-03T10:00:12.674Z,15.0
2023-03-03T10:05:18.867Z,16.0
2023-03-03T10:10:25.074Z,17.0
2023-03-03T10:15:31.279Z,18.5
2023-03-03T10:20:49.114Z,17.0
2023-03-03T10:25:43.730Z,15.0
2023-03-03T10:31:04.214Z,16.0
2023-03-03T10:36:06.633Z,15.0
2023-03-03T10:41:02.328Z,17.0
2023-03-03T10:46:08.574Z,16.0
2023-03-03T10:51:14.732Z,18.0
2023-03-03T10:56:20.938Z,18.0
2023-03-03T11:01:27.185Z,18.0
2023-03-03T11:06:32.381Z,18.0
2023-03-03T11:11:38.593Z,17.0
2023-03-03T11:16:43.994Z,18.0
2023-03-03T11:21:50.154Z,16.0
2023-03-03T11:26:56.238Z,17.0
2023-03-03T11:32:02.606Z,16.0
2023-03-03T11:37:08.656Z,15.0
2023-03-03T11:42:14.870Z,15.0
2023-03-03T11:47:21.080Z,16.0
2023-03-03T11:52:27.285Z,15.5
2023-03-03T11:57:33.493Z,15.0
2023-03-03T12:02:39.738Z,15.0
2023-03-03T12:07:45.903Z,15.0
2023-03-03T12:12:52.104Z,14.0
2023-03-03T12:17:58.316Z,13.0
2023-03-03T12:23:07.043Z,13.0
2023-03-03T12:28:10.726Z,11.0
2023-03-03T12:33:16.951Z,11.0
2023-03-03T12:38:23.151Z,10.0
2023-03-03T12:43:29.365Z,138.5
2023-03-03T12:48:35.567Z,58.0
2023-03-03T12:53:41.795Z,11.5
2023-03-03T12:58:48.006Z,11.0
2023-03-03T13:03:56.233Z,11.0
2023-03-03T13:08:59.425Z,11.0
2023-03-03T13:14:04.680Z,10.0
2023-03-03T13:19:10.865Z,10.0
2023-03-03T13:24:08.705Z,11.0
2023-03-03T13:29:14.885Z,10.0
2023-03-03T13:34:21.094Z,10.0
2023-03-03T13:39:27.323Z,9.0
2023-03-03T13:44:33.522Z,9.0
2023-03-03T13:49:39.718Z,9.0
2023-03-03T13:54:45.932Z,9.0
2023-03-03T13:59:52.129Z,8.0
2023-03-03T14:04:58.349Z,9.0
2023-03-03T14:10:04.554Z,9.0
2023-03-03T14:15:10.770Z,8.0
2023-03-03T14:20:16.993Z,8.0
2023-03-03T14:25:23.174Z,7.0
2023-03-03T14:30:29.460Z,8.5
2023-03-03T14:35:35.644Z,7.0
2023-03-03T14:40:41.802Z,6.0
2023-03-03T14:45:48.053Z,6.0
2023-03-03T14:50:54.314Z,5.0
2023-03-03T14:56:00.428Z,5.0
2023-03-03T15:01:06.715Z,4.0
2023-03-03T15:06:12.847Z,4.0
2023-03-03T15:11:19.050Z,6.0
2023-03-03T15:16:25.256Z,6.0
2023-03-03T15:21:31.475Z,6.0
2023-03-03T15:26:37.668Z,5.0
2023-03-03T15:31:43.886Z,5.0
2023-03-03T15:36:50.082Z,4.0
2023-03-03T15:41:56.298Z,5.0
2023-03-03T15:47:02.503Z,4.0
2023-03-03T15:52:08.706Z,5.0
2023-03-03T15:57:14.923Z,5.0
2023-03-03T16:02:21.128Z,4.0
2023-03-03T16:07:27.345Z,5.0
2023-03-03T16:12:33.546Z,5.0
2023-03-03T16:17:39.751Z,4.0
2023-03-03T16:22:45.953Z,5.0
2023-03-03T16:27:52.160Z,4.0
2023-03-03T16:32:58.374Z,5.0
2023-03-03T16:38:04.594Z,4.0
2023-03-03T16:43:10.797Z,4.0
2023-03-03T16:48:17.003Z,5.0
2023-03-03T16:53:23.277Z,3.0
2023-03-03T16:58:29.420Z,3.0
2023-03-03T17:03:35.631Z,3.0
2023-03-03T17:08:41.847Z,3.0
2023-03-03T17:13:48.036Z,3.0
2023-03-03T17:18:54.249Z,3.0
2023-03-03T17:24:00.453Z,4.0
2023-03-03T17:29:06.651Z,5.0
2023-03-03T17:34:12.886Z,2.0
2023-03-03T17:39:19.088Z,3.0
2023-03-03T17:44:25.282Z,6.0
2023-03-03T17:49:31.492Z,3.0
2023-03-03T17:54:38.061Z,3.0
2023-03-03T17:59:43.906Z,3.0
2023-03-03T18:04:50.124Z,2.0
2023-03-03T18:09:56.334Z,3.0
2023-03-03T18:15:02.554Z,2.0
2023-03-03T18:20:08.741Z,3.0
2023-03-03T18:25:14.954Z,3.0
2023-03-03T18:30:21.157Z,3.0
2023-03-03T18:35:27.419Z,3.0
2023-03-03T18:40:33.583Z,2.0
2023-03-03T18:45:39.781Z,3.0
2023-03-03T18:50:45.986Z,3.0
2023-03-03T18:55:52.196Z,2.0
2023-03-03T19:00:58.403Z,2.0
2023-03-03T19:06:04.612Z,4.0
2023-03-03T19:11:10.813Z,5.0
2023-03-03T19:16:17.075Z,3.0
2023-03-03T19:21:23.226Z,4.0
2023-03-03T19:26:29.429Z,3.0
2023-03-03T19:31:35.734Z,3.0
2023-03-03T19:36:41.850Z,3.0
2023-03-03T19:41:48.060Z,4.0
2023-03-03T19:46:54.293Z,5.0
2023-03-03T19:52:00.480Z,4.0
2023-03-03T19:57:06.688Z,5.0
2023-03-03T20:02:12.985Z,6.5
2023-03-03T20:07:19.103Z,7.0
2023-03-03T20:12:25.312Z,4.0
2023-03-03T20:17:31.506Z,7.0
2023-03-03T20:22:37.717Z,5.0
2023-03-03T20:27:43.926Z,5.0
2023-03-03T20:32:50.141Z,5.0
2023-03-03T20:37:55.365Z,6.0
2023-03-03T20:43:00.615Z,14.0
2023-03-03T20:48:06.808Z,9.0
2023-03-03T20:53:13.024Z,7.0
2023-03-03T20:58:19.244Z,10.0
2023-03-03T21:03:25.437Z,9.0
2023-03-03T21:08:31.646Z,10.0
2023-03-03T21:13:37.857Z,13.0
2023-03-03T21:18:44.055Z,9.0
2023-03-03T21:23:50.268Z,11.5
2023-03-03T21:28:56.537Z,13.0
2023-03-03T21:34:02.673Z,10.5
2023-03-03T21:39:08.883Z,9.0
2023-03-03T21:44:15.099Z,8.0
2023-03-03T21:49:21.303Z,13.0
2023-03-03T21:54:27.508Z,11.5
2023-03-03T21:59:33.735Z,10.0
2023-03-03T22:04:39.960Z,12.0
2023-03-03T22:09:46.243Z,11.0
2023-03-03T22:14:52.337Z,12.0
2023-03-03T22:19:58.578Z,10.0
2023-03-03T22:25:04.747Z,12.0
2023-03-03T22:30:10.041Z,10.0
2023-03-03T22:35:16.199Z,12.0
2023-03-03T22:40:21.443Z,8.0
2023-03-03T22:45:27.659Z,11.0
2023-03-03T22:50:33.865Z,9.0
2023-03-03T22:55:40.061Z,11.0
2023-03-03T23:00:46.290Z,9.0
2023-03-03T23:05:52.526Z,11.0
2023-03-03T23:10:58.690Z,13.0
2023-03-03T23:16:04.947Z,12.0
2023-03-03T23:21:11.097Z,13.0
2023-03-03T23:26:17.305Z,11.0
2023-03-03T23:31:23.576Z,13.5
2023-03-03T23:36:29.715Z,11.0
2023-03-03T23:41:35.926Z,13.0
2023-03-03T23:46:42.224Z,10.0
2023-03-03T23:51:48.342Z,11.0
2023-03-03T23:56:54.555Z,11.0
